sensor_id;sensor_type;location;lat;lon;timestamp;pressure;altitude;pressure_sealevel;temperature;humidity
45763;BME280;37512;52.408;13.356;2023-04-28T00:00:55;101453.81;;;4.03;100.00
45763;BME280;37512;52.408;13.356;2023-04-28T00:04:56;101451.28;;;3.93;100.00
45763;BME280;37512;52.408;13.356;2023-04-28T00:08:58;101445.91;;;3.69;100.00
45763;BME280;37512;52.408;13.356;2023-04-28T00:13:00;101436.03;;;3.54;100.00
45763;BME280;37512;52.408;13.356;2023-04-28T00:17:02;101443.88;;;3.42;100.00
45763;BME280;37512;52.408;13.356;2023-04-28T00:21:04;101438.44;;;3.55;100.00
45763;BME280;37512;52.408;13.356;2023-04-28T00:25:07;101436.56;;;3.70;100.00
45763;BME280;37512;52.408;13.356;2023-04-28T00:29:09;101433.66;;;3.94;100.00
45763;BME280;37512;52.408;13.356;2023-04-28T00:33:11;101436.91;;;3.82;100.00
45763;BME280;37512;52.408;13.356;2023-04-28T00:37:13;101427.13;;;3.76;100.00
45763;BME280;37512;52.408;13.356;2023-04-28T00:41:14;101427.03;;;3.81;100.00
45763;BME280;37512;52.408;13.356;2023-04-28T00:45:16;101421.31;;;3.64;100.00
45763;BME280;37512;52.408;13.356;2023-04-28T00:49:17;101411.84;;;3.56;100.00
45763;BME280;37512;52.408;13.356;2023-04-28T00:53:20;101410.66;;;3.43;100.00
45763;BME280;37512;52.408;13.356;2023-04-28T00:57:21;101402.91;;;3.78;100.00
45763;BME280;37512;52.408;13.356;2023-04-28T01:01:23;101399.50;;;3.86;100.00
45763;BME280;37512;52.408;13.356;2023-04-28T01:05:26;101406.09;;;3.85;100.00
45763;BME280;37512;52.408;13.356;2023-04-28T01:09:28;101403.63;;;3.70;100.00
45763;BME280;37512;52.408;13.356;2023-04-28T01:13:30;101396.06;;;3.62;100.00
45763;BME280;37512;52.408;13.356;2023-04-28T01:17:31;101391.63;;;3.66;100.00
45763;BME280;37512;52.408;13.356;2023-04-28T01:21:33;101392.25;;;3.44;100.00
45763;BME280;37512;52.408;13.356;2023-04-28T01:25:34;101390.25;;;3.49;100.00
45763;BME280;37512;52.408;13.356;2023-04-28T01:29:36;101388.78;;;3.71;100.00
45763;BME280;37512;52.408;13.356;2023-04-28T01:33:37;101375.66;;;3.68;100.00
45763;BME280;37512;52.408;13.356;2023-04-28T01:37:39;101384.22;;;3.80;100.00
45763;BME280;37512;52.408;13.356;2023-04-28T01:41:41;101380.47;;;4.04;100.00
45763;BME280;37512;52.408;13.356;2023-04-28T01:45:43;101377.41;;;3.91;100.00
45763;BME280;37512;52.408;13.356;2023-04-28T01:49:44;101375.47;;;4.06;100.00
45763;BME280;37512;52.408;13.356;2023-04-28T01:53:48;101375.97;;;3.80;100.00
45763;BME280;37512;52.408;13.356;2023-04-28T01:57:49;101371.19;;;3.72;100.00
45763;BME280;37512;52.408;13.356;2023-04-28T02:01:51;101367.16;;;3.97;100.00
45763;BME280;37512;52.408;13.356;2023-04-28T02:05:53;101363.56;;;3.96;100.00
45763;BME280;37512;52.408;13.356;2023-04-28T02:09:54;101367.16;;;3.97;100.00
45763;BME280;37512;52.408;13.356;2023-04-28T02:13:56;101370.84;;;3.60;100.00
45763;BME280;37512;52.408;13.356;2023-04-28T02:17:57;101366.63;;;3.67;100.00
45763;BME280;37512;52.408;13.356;2023-04-28T02:21:59;101363.16;;;3.89;100.00
45763;BME280;37512;52.408;13.356;2023-04-28T02:26:01;101361.41;;;3.52;100.00
45763;BME280;37512;52.408;13.356;2023-04-28T02:30:04;101352.81;;;3.86;100.00
45763;BME280;37512;52.408;13.356;2023-04-28T02:34:06;101352.00;;;4.00;100.00
45763;BME280;37512;52.408;13.356;2023-04-28T02:38:08;101351.78;;;4.10;100.00
45763;BME280;37512;52.408;13.356;2023-04-28T02:42:10;101347.72;;;4.07;100.00
45763;BME280;37512;52.408;13.356;2023-04-28T02:46:11;101335.53;;;4.00;100.00
45763;BME280;37512;52.408;13.356;2023-04-28T02:50:13;101344.06;;;3.84;100.00
45763;BME280;37512;52.408;13.356;2023-04-28T02:54:14;101340.38;;;3.89;100.00
45763;BME280;37512;52.408;13.356;2023-04-28T02:58:16;101340.69;;;3.73;100.00
45763;BME280;37512;52.408;13.356;2023-04-28T03:02:18;101340.59;;;3.92;100.00
45763;BME280;37512;52.408;13.356;2023-04-28T03:06:23;101335.41;;;4.05;100.00
45763;BME280;37512;52.408;13.356;2023-04-28T03:10:24;101327.16;;;4.18;100.00
45763;BME280;37512;52.408;13.356;2023-04-28T03:14:26;101330.13;;;4.22;100.00
45763;BME280;37512;52.408;13.356;2023-04-28T03:18:27;101326.34;;;4.18;100.00
45763;BME280;37512;52.408;13.356;2023-04-28T03:22:29;101326.38;;;4.04;100.00
45763;BME280;37512;52.408;13.356;2023-04-28T03:26:32;101322.38;;;3.96;100.00
45763;BME280;37512;52.408;13.356;2023-04-28T03:30:33;101314.97;;;4.11;100.00
45763;BME280;37512;52.408;13.356;2023-04-28T03:34:35;101317.09;;;4.00;100.00
45763;BME280;37512;52.408;13.356;2023-04-28T03:38:37;101319.13;;;3.94;100.00
45763;BME280;37512;52.408;13.356;2023-04-28T03:42:39;101318.63;;;3.92;100.00
45763;BME280;37512;52.408;13.356;2023-04-28T03:46:40;101311.59;;;3.72;100.00
45763;BME280;37512;52.408;13.356;2023-04-28T03:50:42;101312.81;;;3.66;100.00
45763;BME280;37512;52.408;13.356;2023-04-28T03:54:45;101312.22;;;3.83;100.00
45763;BME280;37512;52.408;13.356;2023-04-28T03:58:47;101302.56;;;4.00;100.00
45763;BME280;37512;52.408;13.356;2023-04-28T04:02:48;101302.97;;;3.93;100.00
45763;BME280;37512;52.408;13.356;2023-04-28T04:06:51;101295.75;;;3.97;100.00
45763;BME280;37512;52.408;13.356;2023-04-28T04:10:52;101291.97;;;3.93;100.00
45763;BME280;37512;52.408;13.356;2023-04-28T04:14:55;101294.81;;;4.02;100.00
45763;BME280;37512;52.408;13.356;2023-04-28T04:18:57;101287.28;;;4.07;100.00
45763;BME280;37512;52.408;13.356;2023-04-28T04:22:58;101286.97;;;4.09;100.00
45763;BME280;37512;52.408;13.356;2023-04-28T04:27:00;101280.25;;;4.15;100.00
45763;BME280;37512;52.408;13.356;2023-04-28T04:31:01;101286.66;;;3.96;100.00
45763;BME280;37512;52.408;13.356;2023-04-28T04:35:03;101286.47;;;4.07;100.00
45763;BME280;37512;52.408;13.356;2023-04-28T04:39:05;101283.31;;;4.13;100.00
45763;BME280;37512;52.408;13.356;2023-04-28T04:43:06;101285.56;;;3.97;100.00
45763;BME280;37512;52.408;13.356;2023-04-28T04:47:08;101285.44;;;4.03;100.00
45763;BME280;37512;52.408;13.356;2023-04-28T04:51:09;101279.34;;;4.06;100.00
45763;BME280;37512;52.408;13.356;2023-04-28T04:55:11;101282.72;;;4.03;100.00
45763;BME280;37512;52.408;13.356;2023-04-28T04:59:13;101266.09;;;4.22;100.00
45763;BME280;37512;52.408;13.356;2023-04-28T05:03:14;101270.66;;;4.26;100.00
45763;BME280;37512;52.408;13.356;2023-04-28T05:07:16;101267.31;;;4.29;100.00
45763;BME280;37512;52.408;13.356;2023-04-28T05:11:18;101260.97;;;4.65;100.00
45763;BME280;37512;52.408;13.356;2023-04-28T05:15:20;101256.59;;;4.87;100.00
45763;BME280;37512;52.408;13.356;2023-04-28T05:19:22;101270.47;;;5.04;100.00
45763;BME280;37512;52.408;13.356;2023-04-28T05:23:23;101254.97;;;4.86;100.00
45763;BME280;37512;52.408;13.356;2023-04-28T05:27:25;101257.41;;;5.10;100.00
45763;BME280;37512;52.408;13.356;2023-04-28T05:31:27;101244.69;;;5.22;100.00
45763;BME280;37512;52.408;13.356;2023-04-28T05:35:28;101243.41;;;5.29;100.00
45763;BME280;37512;52.408;13.356;2023-04-28T05:39:31;101242.78;;;5.72;100.00
45763;BME280;37512;52.408;13.356;2023-04-28T05:43:33;101241.47;;;5.69;100.00
45763;BME280;37512;52.408;13.356;2023-04-28T05:47:34;101244.94;;;5.92;100.00
45763;BME280;37512;52.408;13.356;2023-04-28T05:51:36;101231.72;;;6.12;100.00
45763;BME280;37512;52.408;13.356;2023-04-28T05:55:38;101234.81;;;6.36;100.00
45763;BME280;37512;52.408;13.356;2023-04-28T05:59:40;101223.78;;;6.62;99.00
45763;BME280;37512;52.408;13.356;2023-04-28T06:03:42;101217.44;;;6.79;99.95
45763;BME280;37512;52.408;13.356;2023-04-28T06:07:45;101219.16;;;7.10;96.70
45763;BME280;37512;52.408;13.356;2023-04-28T06:11:50;101215.13;;;6.99;94.59
45763;BME280;37512;52.408;13.356;2023-04-28T06:15:51;101220.41;;;7.30;97.48
45763;BME280;37512;52.408;13.356;2023-04-28T06:19:53;101213.53;;;7.36;95.11
45763;BME280;37512;52.408;13.356;2023-04-28T06:23:56;101217.25;;;7.40;92.32
45763;BME280;37512;52.408;13.356;2023-04-28T06:27:57;101203.97;;;7.33;91.74
45763;BME280;37512;52.408;13.356;2023-04-28T06:31:59;101207.69;;;7.38;92.42
45763;BME280;37512;52.408;13.356;2023-04-28T06:36:00;101199.25;;;7.34;93.51
45763;BME280;37512;52.408;13.356;2023-04-28T06:40:02;101201.66;;;7.44;92.65
45763;BME280;37512;52.408;13.356;2023-04-28T06:44:03;101206.75;;;7.63;93.32
45763;BME280;37512;52.408;13.356;2023-04-28T06:48:05;101195.94;;;7.79;89.41
45763;BME280;37512;52.408;13.356;2023-04-28T06:52:08;101193.81;;;8.27;85.49
45763;BME280;37512;52.408;13.356;2023-04-28T06:56:10;101187.22;;;8.73;82.63
45763;BME280;37512;52.408;13.356;2023-04-28T07:00:13;101182.84;;;8.72;76.50
45763;BME280;37512;52.408;13.356;2023-04-28T07:04:14;101183.81;;;8.89;75.25
45763;BME280;37512;52.408;13.356;2023-04-28T07:08:17;101171.31;;;9.40;74.10
45763;BME280;37512;52.408;13.356;2023-04-28T07:12:19;101168.09;;;9.38;72.30
45763;BME280;37512;52.408;13.356;2023-04-28T07:16:21;101169.69;;;9.15;72.55
45763;BME280;37512;52.408;13.356;2023-04-28T07:20:22;101158.38;;;9.57;70.41
45763;BME280;37512;52.408;13.356;2023-04-28T07:24:24;101156.84;;;9.84;69.59
45763;BME280;37512;52.408;13.356;2023-04-28T07:28:27;101144.59;;;9.97;67.85
45763;BME280;37512;52.408;13.356;2023-04-28T07:32:29;101142.28;;;9.87;65.06
45763;BME280;37512;52.408;13.356;2023-04-28T07:36:30;101140.47;;;9.79;66.78
45763;BME280;37512;52.408;13.356;2023-04-28T07:40:32;101136.19;;;9.81;68.69
45763;BME280;37512;52.408;13.356;2023-04-28T07:44:34;101128.28;;;9.96;67.75
45763;BME280;37512;52.408;13.356;2023-04-28T07:48:35;101134.03;;;10.15;65.31
45763;BME280;37512;52.408;13.356;2023-04-28T07:52:37;101124.72;;;10.36;66.20
45763;BME280;37512;52.408;13.356;2023-04-28T07:56:38;101126.75;;;10.67;62.11
45763;BME280;37512;52.408;13.356;2023-04-28T08:00:40;101130.00;;;10.85;59.41
45763;BME280;37512;52.408;13.356;2023-04-28T08:04:41;101135.84;;;11.12;57.26
45763;BME280;37512;52.408;13.356;2023-04-28T08:08:43;101120.94;;;11.36;55.33
45763;BME280;37512;52.408;13.356;2023-04-28T08:12:45;101135.22;;;11.34;54.11
45763;BME280;37512;52.408;13.356;2023-04-28T08:16:46;101123.09;;;11.26;53.71
45763;BME280;37512;52.408;13.356;2023-04-28T08:20:48;101117.75;;;11.34;53.40
45763;BME280;37512;52.408;13.356;2023-04-28T08:24:50;101124.97;;;11.54;52.83
45763;BME280;37512;52.408;13.356;2023-04-28T08:28:52;101102.25;;;11.68;53.12
45763;BME280;37512;52.408;13.356;2023-04-28T08:32:53;101103.03;;;12.04;52.67
45763;BME280;37512;52.408;13.356;2023-04-28T08:36:55;101104.06;;;12.34;52.69
45763;BME280;37512;52.408;13.356;2023-04-28T08:40:56;101102.72;;;12.48;51.14
45763;BME280;37512;52.408;13.356;2023-04-28T08:44:58;101095.94;;;12.68;53.01
45763;BME280;37512;52.408;13.356;2023-04-28T08:49:03;101097.81;;;12.41;51.50
45763;BME280;37512;52.408;13.356;2023-04-28T08:53:06;101086.47;;;12.30;50.24
45763;BME280;37512;52.408;13.356;2023-04-28T08:57:09;101080.84;;;12.69;52.66
45763;BME280;37512;52.408;13.356;2023-04-28T09:01:11;101075.63;;;13.14;50.77
45763;BME280;37512;52.408;13.356;2023-04-28T09:05:13;101076.06;;;12.93;49.72
45763;BME280;37512;52.408;13.356;2023-04-28T09:09:21;101069.19;;;13.10;50.00
45763;BME280;37512;52.408;13.356;2023-04-28T09:13:24;101063.00;;;13.47;49.50
45763;BME280;37512;52.408;13.356;2023-04-28T09:17:26;101059.03;;;12.98;50.00
45763;BME280;37512;52.408;13.356;2023-04-28T09:21:28;101064.13;;;13.42;50.14
45763;BME280;37512;52.408;13.356;2023-04-28T09:25:29;101047.38;;;13.69;48.61
45763;BME280;37512;52.408;13.356;2023-04-28T09:29:32;101051.34;;;13.14;47.93
45763;BME280;37512;52.408;13.356;2023-04-28T09:33:33;101040.16;;;13.37;49.09
45763;BME280;37512;52.408;13.356;2023-04-28T09:37:35;101047.25;;;13.92;47.44
45763;BME280;37512;52.408;13.356;2023-04-28T09:41:42;101024.00;;;14.14;47.58
45763;BME280;37512;52.408;13.356;2023-04-28T09:45:44;101020.63;;;14.35;47.59
45763;BME280;37512;52.408;13.356;2023-04-28T09:49:56;101026.22;;;14.35;46.81
45763;BME280;37512;52.408;13.356;2023-04-28T09:53:59;101024.06;;;14.55;46.59
45763;BME280;37512;52.408;13.356;2023-04-28T09:58:04;101027.84;;;14.40;45.29
45763;BME280;37512;52.408;13.356;2023-04-28T10:02:07;101021.97;;;14.52;47.19
45763;BME280;37512;52.408;13.356;2023-04-28T10:06:29;101007.88;;;15.38;45.06
45763;BME280;37512;52.408;13.356;2023-04-28T10:10:32;101021.16;;;15.55;45.13
45763;BME280;37512;52.408;13.356;2023-04-28T10:14:36;101010.13;;;15.14;44.52
45763;BME280;37512;52.408;13.356;2023-04-28T10:18:38;101003.31;;;15.08;45.26
45763;BME280;37512;52.408;13.356;2023-04-28T10:27:07;100996.94;;;15.88;45.03
45763;BME280;37512;52.408;13.356;2023-04-28T10:31:17;100988.25;;;16.22;43.46
45763;BME280;37512;52.408;13.356;2023-04-28T10:39:28;100973.44;;;16.97;41.44
45763;BME280;37512;52.408;13.356;2023-04-28T10:43:37;100971.03;;;16.13;42.86
45763;BME280;37512;52.408;13.356;2023-04-28T10:47:59;100965.78;;;17.29;40.72
45763;BME280;37512;52.408;13.356;2023-04-28T10:56:35;100960.97;;;17.26;40.20
45763;BME280;37512;52.408;13.356;2023-04-28T11:00:37;100950.66;;;16.77;43.96
45763;BME280;37512;52.408;13.356;2023-04-28T11:05:10;100952.59;;;17.16;41.90
45763;BME280;37512;52.408;13.356;2023-04-28T11:13:27;100942.97;;;17.17;40.91
45763;BME280;37512;52.408;13.356;2023-04-28T11:17:40;100944.97;;;17.23;42.12
45763;BME280;37512;52.408;13.356;2023-04-28T11:21:42;100951.06;;;16.50;41.82
45763;BME280;37512;52.408;13.356;2023-04-28T11:25:55;100952.19;;;15.99;42.20
45763;BME280;37512;52.408;13.356;2023-04-28T11:29:58;100938.63;;;16.22;43.29
45763;BME280;37512;52.408;13.356;2023-04-28T11:34:06;100935.44;;;16.38;44.34
45763;BME280;37512;52.408;13.356;2023-04-28T11:38:08;100937.44;;;16.59;43.52
45763;BME280;37512;52.408;13.356;2023-04-28T11:42:10;100929.03;;;16.56;44.20
45763;BME280;37512;52.408;13.356;2023-04-28T11:46:21;100927.81;;;16.28;43.22
45763;BME280;37512;52.408;13.356;2023-04-28T11:50:36;100923.41;;;16.05;43.88
45763;BME280;37512;52.408;13.356;2023-04-28T11:54:38;100915.84;;;16.38;44.13
45763;BME280;37512;52.408;13.356;2023-04-28T11:58:42;100914.59;;;16.79;43.13
45763;BME280;37512;52.408;13.356;2023-04-28T12:02:44;100912.56;;;17.04;42.73
45763;BME280;37512;52.408;13.356;2023-04-28T12:06:46;100906.97;;;17.04;42.75
45763;BME280;37512;52.408;13.356;2023-04-28T12:11:09;100914.53;;;17.18;41.52
45763;BME280;37512;52.408;13.356;2023-04-28T12:15:14;100905.50;;;17.66;41.28
45763;BME280;37512;52.408;13.356;2023-04-28T12:19:16;100895.00;;;17.81;40.59
45763;BME280;37512;52.408;13.356;2023-04-28T12:23:34;100900.09;;;17.27;41.97
45763;BME280;37512;52.408;13.356;2023-04-28T12:27:36;100884.13;;;16.99;42.30
45763;BME280;37512;52.408;13.356;2023-04-28T12:31:50;100886.56;;;16.89;41.08
45763;BME280;37512;52.408;13.356;2023-04-28T12:35:55;100878.63;;;16.38;40.70
45763;BME280;37512;52.408;13.356;2023-04-28T12:39:57;100882.25;;;16.24;41.79
45763;BME280;37512;52.408;13.356;2023-04-28T12:43:58;100878.63;;;16.02;42.37
45763;BME280;37512;52.408;13.356;2023-04-28T12:48:00;100867.78;;;16.50;42.50
45763;BME280;37512;52.408;13.356;2023-04-28T12:52:03;100859.41;;;16.07;42.30
45763;BME280;37512;52.408;13.356;2023-04-28T12:56:05;100861.81;;;16.23;43.74
45763;BME280;37512;52.408;13.356;2023-04-28T13:00:07;100854.22;;;16.35;42.91
45763;BME280;37512;52.408;13.356;2023-04-28T13:04:09;100857.41;;;16.19;43.24
45763;BME280;37512;52.408;13.356;2023-04-28T13:08:11;100860.63;;;16.21;43.57
45763;BME280;37512;52.408;13.356;2023-04-28T13:12:14;100862.59;;;15.77;44.00
45763;BME280;37512;52.408;13.356;2023-04-28T13:16:15;100852.19;;;15.74;44.50
45763;BME280;37512;52.408;13.356;2023-04-28T13:20:17;100848.97;;;15.76;45.25
45763;BME280;37512;52.408;13.356;2023-04-28T13:24:18;100842.13;;;15.59;45.56
45763;BME280;37512;52.408;13.356;2023-04-28T13:28:20;100836.94;;;15.61;46.58
45763;BME280;37512;52.408;13.356;2023-04-28T13:32:22;100827.41;;;15.91;46.47
45763;BME280;37512;52.408;13.356;2023-04-28T13:36:24;100828.56;;;15.61;47.88
45763;BME280;37512;52.408;13.356;2023-04-28T13:40:29;100824.22;;;15.74;47.78
45763;BME280;37512;52.408;13.356;2023-04-28T13:44:31;100823.81;;;15.79;47.15
45763;BME280;37512;52.408;13.356;2023-04-28T13:48:33;100820.16;;;15.64;48.10
45763;BME280;37512;52.408;13.356;2023-04-28T13:52:36;100826.94;;;15.53;49.09
45763;BME280;37512;52.408;13.356;2023-04-28T13:56:38;100821.75;;;15.58;48.73
45763;BME280;37512;52.408;13.356;2023-04-28T14:00:39;100823.66;;;15.22;52.98
45763;BME280;37512;52.408;13.356;2023-04-28T14:04:41;100808.50;;;15.26;52.74
45763;BME280;37512;52.408;13.356;2023-04-28T14:08:48;100809.34;;;15.45;51.50
45763;BME280;37512;52.408;13.356;2023-04-28T14:12:51;100802.50;;;15.32;52.65
45763;BME280;37512;52.408;13.356;2023-04-28T14:16:52;100807.56;;;14.94;54.70
45763;BME280;37512;52.408;13.356;2023-04-28T14:20:54;100797.63;;;15.00;58.34
45763;BME280;37512;52.408;13.356;2023-04-28T14:24:56;100795.19;;;14.88;59.44
45763;BME280;37512;52.408;13.356;2023-04-28T14:28:57;100789.66;;;15.09;59.29
45763;BME280;37512;52.408;13.356;2023-04-28T14:33:00;100788.06;;;15.08;60.45
45763;BME280;37512;52.408;13.356;2023-04-28T14:37:02;100787.72;;;15.17;62.14
45763;BME280;37512;52.408;13.356;2023-04-28T14:41:03;100785.72;;;15.17;63.37
45763;BME280;37512;52.408;13.356;2023-04-28T14:45:06;100784.84;;;14.99;67.53
45763;BME280;37512;52.408;13.356;2023-04-28T14:49:09;100788.75;;;14.80;67.59
45763;BME280;37512;52.408;13.356;2023-04-28T14:53:11;100792.50;;;14.43;72.62
45763;BME280;37512;52.408;13.356;2023-04-28T14:57:12;100782.06;;;14.29;77.29
45763;BME280;37512;52.408;13.356;2023-04-28T15:01:14;100781.59;;;14.20;82.36
45763;BME280;37512;52.408;13.356;2023-04-28T15:05:16;100775.00;;;13.91;89.84
45763;BME280;37512;52.408;13.356;2023-04-28T15:09:18;100769.03;;;13.48;97.59
45763;BME280;37512;52.408;13.356;2023-04-28T15:13:19;100761.91;;;13.50;100.00
45763;BME280;37512;52.408;13.356;2023-04-28T15:17:22;100751.91;;;13.46;97.76
45763;BME280;37512;52.408;13.356;2023-04-28T15:21:23;100760.31;;;13.49;96.33
45763;BME280;37512;52.408;13.356;2023-04-28T15:25:25;100765.56;;;13.58;98.23
45763;BME280;37512;52.408;13.356;2023-04-28T15:29:27;100763.75;;;13.35;99.18
45763;BME280;37512;52.408;13.356;2023-04-28T15:33:28;100755.09;;;13.44;97.75
45763;BME280;37512;52.408;13.356;2023-04-28T15:41:37;100746.47;;;13.64;95.62
45763;BME280;37512;52.408;13.356;2023-04-28T15:45:39;100735.88;;;13.35;96.84
45763;BME280;37512;52.408;13.356;2023-04-28T15:49:40;100738.31;;;13.41;99.48
45763;BME280;37512;52.408;13.356;2023-04-28T15:53:42;100736.00;;;13.50;100.00
45763;BME280;37512;52.408;13.356;2023-04-28T15:57:45;100732.41;;;13.49;100.00
45763;BME280;37512;52.408;13.356;2023-04-28T16:01:47;100730.59;;;13.68;100.00
45763;BME280;37512;52.408;13.356;2023-04-28T16:05:48;100736.41;;;13.48;100.00
45763;BME280;37512;52.408;13.356;2023-04-28T16:09:50;100728.47;;;13.54;100.00
45763;BME280;37512;52.408;13.356;2023-04-28T16:13:53;100723.69;;;13.51;100.00
45763;BME280;37512;52.408;13.356;2023-04-28T16:17:55;100717.63;;;13.42;100.00
45763;BME280;37512;52.408;13.356;2023-04-28T16:21:57;100712.88;;;13.46;100.00
45763;BME280;37512;52.408;13.356;2023-04-28T16:25:58;100709.69;;;13.44;100.00
45763;BME280;37512;52.408;13.356;2023-04-28T16:30:00;100704.66;;;13.64;100.00
45763;BME280;37512;52.408;13.356;2023-04-28T16:34:02;100710.22;;;13.64;100.00
45763;BME280;37512;52.408;13.356;2023-04-28T16:38:04;100710.56;;;13.55;100.00
45763;BME280;37512;52.408;13.356;2023-04-28T16:42:06;100714.63;;;13.65;100.00
45763;BME280;37512;52.408;13.356;2023-04-28T16:46:08;100713.75;;;13.57;100.00
45763;BME280;37512;52.408;13.356;2023-04-28T16:50:10;100710.53;;;13.51;100.00
45763;BME280;37512;52.408;13.356;2023-04-28T16:54:12;100706.63;;;13.59;100.00
45763;BME280;37512;52.408;13.356;2023-04-28T16:58:13;100704.06;;;13.40;100.00
45763;BME280;37512;52.408;13.356;2023-04-28T17:02:15;100697.31;;;13.45;100.00
45763;BME280;37512;52.408;13.356;2023-04-28T17:06:17;100702.47;;;13.43;100.00
45763;BME280;37512;52.408;13.356;2023-04-28T17:10:18;100700.31;;;13.25;100.00
45763;BME280;37512;52.408;13.356;2023-04-28T17:14:20;100698.28;;;13.22;100.00
45763;BME280;37512;52.408;13.356;2023-04-28T17:18:22;100690.44;;;13.31;100.00
45763;BME280;37512;52.408;13.356;2023-04-28T17:22:23;100684.34;;;13.22;100.00
45763;BME280;37512;52.408;13.356;2023-04-28T17:26:27;100683.84;;;13.09;100.00
45763;BME280;37512;52.408;13.356;2023-04-28T17:30:28;100683.00;;;13.05;100.00
45763;BME280;37512;52.408;13.356;2023-04-28T17:34:30;100689.41;;;13.09;100.00
45763;BME280;37512;52.408;13.356;2023-04-28T17:38:31;100688.66;;;13.12;100.00
45763;BME280;37512;52.408;13.356;2023-04-28T17:42:33;100683.25;;;12.93;100.00
45763;BME280;37512;52.408;13.356;2023-04-28T17:46:34;100681.75;;;12.99;100.00
45763;BME280;37512;52.408;13.356;2023-04-28T17:50:38;100671.25;;;12.85;100.00
45763;BME280;37512;52.408;13.356;2023-04-28T17:54:39;100668.47;;;12.85;100.00
45763;BME280;37512;52.408;13.356;2023-04-28T17:58:41;100669.19;;;12.79;100.00
45763;BME280;37512;52.408;13.356;2023-04-28T18:02:42;100669.56;;;12.77;100.00
45763;BME280;37512;52.408;13.356;2023-04-28T18:06:44;100672.28;;;12.70;100.00
45763;BME280;37512;52.408;13.356;2023-04-28T18:10:46;100670.72;;;12.72;100.00
45763;BME280;37512;52.408;13.356;2023-04-28T18:14:47;100676.69;;;12.74;100.00
45763;BME280;37512;52.408;13.356;2023-04-28T18:18:50;100676.19;;;12.65;100.00
45763;BME280;37512;52.408;13.356;2023-04-28T18:22:52;100674.25;;;12.69;100.00
45763;BME280;37512;52.408;13.356;2023-04-28T18:26:53;100681.03;;;12.68;100.00
45763;BME280;37512;52.408;13.356;2023-04-28T18:30:55;100669.69;;;12.54;100.00
45763;BME280;37512;52.408;13.356;2023-04-28T18:34:56;100667.53;;;12.37;100.00
45763;BME280;37512;52.408;13.356;2023-04-28T18:38:58;100667.47;;;12.33;100.00
45763;BME280;37512;52.408;13.356;2023-04-28T18:43:00;100664.34;;;12.38;100.00
45763;BME280;37512;52.408;13.356;2023-04-28T18:47:04;100655.16;;;12.34;100.00
45763;BME280;37512;52.408;13.356;2023-04-28T18:51:06;100650.31;;;12.27;100.00
45763;BME280;37512;52.408;13.356;2023-04-28T18:55:07;100647.09;;;12.25;100.00
45763;BME280;37512;52.408;13.356;2023-04-28T18:59:10;100651.03;;;12.21;100.00
45763;BME280;37512;52.408;13.356;2023-04-28T19:03:11;100647.00;;;12.18;100.00
45763;BME280;37512;52.408;13.356;2023-04-28T19:07:13;100653.84;;;12.24;100.00
45763;BME280;37512;52.408;13.356;2023-04-28T19:11:15;100650.09;;;12.13;100.00
45763;BME280;37512;52.408;13.356;2023-04-28T19:15:16;100646.44;;;12.05;100.00
45763;BME280;37512;52.408;13.356;2023-04-28T19:19:19;100649.47;;;12.27;100.00
45763;BME280;37512;52.408;13.356;2023-04-28T19:23:20;100655.22;;;12.07;100.00
45763;BME280;37512;52.408;13.356;2023-04-28T19:27:22;100646.06;;;12.07;100.00
45763;BME280;37512;52.408;13.356;2023-04-28T19:31:24;100644.09;;;12.07;100.00
45763;BME280;37512;52.408;13.356;2023-04-28T19:35:25;100640.50;;;12.07;100.00
